Terminal Aerodrome Forecast
Issued by NWS Sterling, VA

Home | Current Version | Previous Version | Text Only | Print | Product List | Glossary On
Versions: 1 2 3 4 5 6 7 8 9 10 11 12 13 14
921
FTUS41 KLWX 252328
TAFCHO
TAF
KCHO 252328Z 2600/2624 18005KT P6SM BKN250
     FM260800 VRB03KT P6SM BKN060
     FM261000 VRB03KT P6SM BKN010
     FM261500 14006KT P6SM BKN025
     FM262000 15008KT P6SM BKN050=

USA.gov is the U.S. government's official web portal to all federal, state and local government web resources and services.